createdAt,value
2023-05-01T00:00:35.597Z,20.2
2023-05-01T00:20:38.598Z,20.1
2023-05-01T00:40:35.649Z,20.1
2023-05-01T01:00:35.390Z,20
2023-05-01T01:20:36.873Z,20
2023-05-01T01:40:34.873Z,19.9
2023-05-01T02:00:34.697Z,19.9
2023-05-01T02:20:37.027Z,19.8
2023-05-01T02:40:41.578Z,19.7
2023-05-01T03:00:37.664Z,19.6
2023-05-01T03:20:35.462Z,19.6
2023-05-01T03:40:36.248Z,19.6
2023-05-01T04:00:35.252Z,19.4
2023-05-01T04:20:34.686Z,19.4
2023-05-01T04:40:59.191Z,19.5
2023-05-01T05:00:52.904Z,19.5
2023-05-01T05:20:58.390Z,19.6
2023-05-01T05:40:51.716Z,19.6
2023-05-01T06:00:52.387Z,19.7
2023-05-01T06:20:56.828Z,19.8
2023-05-01T06:40:54.555Z,19.8
2023-05-01T07:01:00.418Z,19.8
2023-05-01T07:20:52.026Z,19.7
2023-05-01T07:40:51.863Z,19.8
2023-05-01T08:00:52.816Z,19.8
2023-05-01T08:20:52.709Z,19.8
2023-05-01T08:40:55.169Z,19.8
2023-05-01T09:00:58.113Z,19.9
2023-05-01T09:20:52.540Z,19.8
2023-05-01T09:40:52.048Z,19.8
2023-05-01T10:00:57.425Z,19.9
2023-05-01T10:20:55.433Z,19.9
2023-05-01T10:40:50.382Z,19.9
2023-05-01T11:00:51.125Z,20
2023-05-01T11:20:55.030Z,20.1
2023-05-01T11:40:54.980Z,20.1
2023-05-01T12:00:50.807Z,20.1
2023-05-01T12:20:59.712Z,20.1
2023-05-01T12:40:52.841Z,20.1
2023-05-01T13:00:57.744Z,20.1
2023-05-01T13:20:54.742Z,20.1
2023-05-01T13:40:54.158Z,20.1
2023-05-01T14:00:56.902Z,20.2
2023-05-01T14:20:57.329Z,20.2
2023-05-01T14:40:53.042Z,20.3
2023-05-01T15:00:56.559Z,20.3
2023-05-01T15:20:52.853Z,20.4
2023-05-01T15:40:51.808Z,20.4
2023-05-01T16:00:57.729Z,20.4
2023-05-01T16:20:51.996Z,20.4
2023-05-01T16:40:52.913Z,20.4
2023-05-01T17:00:53.696Z,20.4
2023-05-01T17:20:59.692Z,20.3
2023-05-01T17:40:51.899Z,20.3
2023-05-01T18:00:55.101Z,20.3
2023-05-01T18:20:51.392Z,20.3
2023-05-01T18:40:35.789Z,20.3
2023-05-01T19:00:34.417Z,20.2
2023-05-01T19:20:34.818Z,20.2
2023-05-01T19:40:35.771Z,20.2
2023-05-01T20:00:35.057Z,20.2
2023-05-01T20:20:35.483Z,20.1
2023-05-01T20:40:34.757Z,20.1
2023-05-01T21:00:35.238Z,20
2023-05-01T21:20:35.264Z,19.9
2023-05-01T21:40:34.879Z,19.9
2023-05-01T22:00:48.531Z,19.8
2023-05-01T22:20:36.444Z,19.7
2023-05-01T22:40:35.100Z,19.6
2023-05-01T23:00:34.438Z,19.5
2023-05-01T23:20:38.110Z,19.4
2023-05-01T23:40:38.732Z,19.4
